Time;durP1;ratioP1;P1;durP2;ratioP2;P2;SDS_P1;SDS_P2;PMS_P1;PMS_P2;Temp;Humidity;BMP_temperature;BMP_pressure;BME280_temperature;BME280_humidity;BME280_pressure;Samples;Min_cycle;Max_cycle;Signal;HPM_P1;HPM_P2
2023/03/15 00:00:45;;;;;;;5.55;2.53;;;;;;;;;;5026478;28;20099;-59
2023/03/15 00:03:13;;;;;;;8.35;3.20;;;;;;;;;;5023362;28;20127;-61
2023/03/15 00:05:44;;;;;;;6.40;2.95;;;;;;;;;;5023512;28;20482;-61
2023/03/15 00:08:11;;;;;;;8.73;3.00;;;;;;;;;;5023694;28;20057;-61
2023/03/15 00:10:45;;;;;;;9.43;3.05;;;;;;;;;;5023234;28;20037;-61
2023/03/15 00:13:17;;;;;;;7.40;2.80;;;;;;;;;;5022805;28;20048;-60
2023/03/15 00:15:50;;;;;;;8.40;3.00;;;;;;;;;;5026340;28;21796;-61
2023/03/15 00:18:18;;;;;;;7.80;2.90;;;;;;;;;;5023918;28;20056;-61
2023/03/15 00:20:46;;;;;;;8.18;3.38;;;;;;;;;;5022566;28;20509;-62
2023/03/15 00:23:13;;;;;;;6.43;2.97;;;;;;;;;;5024263;28;20044;-60
2023/03/15 00:25:39;;;;;;;5.95;2.88;;;;;;;;;;5023848;28;20127;-60
2023/03/15 00:28:06;;;;;;;9.77;3.30;;;;;;;;;;5022146;28;20040;-60
2023/03/15 00:30:33;;;;;;;7.47;3.05;;;;;;;;;;5022201;28;20658;-62
2023/03/15 00:33:00;;;;;;;7.28;3.38;;;;;;;;;;5025146;28;20517;-60
2023/03/15 00:35:26;;;;;;;6.70;3.00;;;;;;;;;;5023841;28;20048;-62
2023/03/15 00:37:56;;;;;;;12.13;3.30;;;;;;;;;;5025525;28;20044;-62
2023/03/15 00:40:23;;;;;;;7.50;3.92;;;;;;;;;;5024182;28;20079;-62
2023/03/15 00:42:50;;;;;;;7.05;3.22;;;;;;;;;;5024898;28;20060;-60
2023/03/15 00:45:18;;;;;;;6.18;2.70;;;;;;;;;;5025431;28;21024;-60
2023/03/15 00:47:44;;;;;;;7.22;3.33;;;;;;;;;;5023680;28;20051;-63
2023/03/15 00:50:11;;;;;;;6.50;3.08;;;;;;;;;;5024420;28;20076;-61
2023/03/15 00:52:38;;;;;;;6.55;3.40;;;;;;;;;;5023098;28;20064;-63
2023/03/15 00:55:05;;;;;;;6.18;3.33;;;;;;;;;;5024282;28;20033;-62
2023/03/15 00:57:35;;;;;;;6.28;3.25;;;;;;;;;;5023582;28;20037;-61
2023/03/15 01:00:03;;;;;;;6.70;3.58;;;;;;;;;;5023116;28;20040;-61
2023/03/15 01:02:30;;;;;;;6.30;3.13;;;;;;;;;;5022484;28;20189;-63
2023/03/15 01:04:57;;;;;;;6.43;2.97;;;;;;;;;;5025268;28;20110;-64
2023/03/15 01:07:23;;;;;;;7.70;3.40;;;;;;;;;;5028868;28;20041;-62
2023/03/15 01:09:50;;;;;;;5.97;2.97;;;;;;;;;;5026788;28;20124;-60
2023/03/15 01:12:17;;;;;;;9.02;3.30;;;;;;;;;;5026942;28;20160;-61
2023/03/15 01:14:44;;;;;;;10.65;3.58;;;;;;;;;;5027999;28;20033;-61
2023/03/15 01:17:10;;;;;;;6.40;2.97;;;;;;;;;;5026859;28;21704;-61
2023/03/15 01:19:37;;;;;;;7.78;3.17;;;;;;;;;;5025569;28;20113;-62
2023/03/15 01:22:04;;;;;;;6.22;3.10;;;;;;;;;;5027561;28;20499;-62
2023/03/15 01:24:30;;;;;;;7.15;3.22;;;;;;;;;;5038238;28;20119;-61
2023/03/15 01:26:57;;;;;;;7.13;3.42;;;;;;;;;;5026237;28;20108;-62
2023/03/15 01:29:23;;;;;;;8.65;3.85;;;;;;;;;;5026508;28;20504;-61
2023/03/15 01:31:50;;;;;;;8.07;3.78;;;;;;;;;;5027220;28;20052;-62
2023/03/15 01:34:17;;;;;;;8.60;4.18;;;;;;;;;;5025968;28;20188;-63
2023/03/15 01:36:43;;;;;;;9.10;4.20;;;;;;;;;;5026880;28;20044;-62
2023/03/15 01:39:10;;;;;;;7.40;3.45;;;;;;;;;;5021074;28;20064;-61
2023/03/15 01:41:37;;;;;;;9.88;3.38;;;;;;;;;;5022873;28;20040;-62
2023/03/15 01:44:03;;;;;;;10.05;4.40;;;;;;;;;;5022794;28;20064;-62
2023/03/15 01:46:34;;;;;;;6.97;3.97;;;;;;;;;;5021605;28;20060;-64
2023/03/15 01:49:00;;;;;;;7.78;3.55;;;;;;;;;;5025343;28;20040;-61
2023/03/15 01:51:27;;;;;;;6.68;3.03;;;;;;;;;;5026239;28;20053;-64
2023/03/15 01:53:56;;;;;;;6.28;3.67;;;;;;;;;;5027098;28;20905;-62
2023/03/15 01:56:23;;;;;;;7.43;3.10;;;;;;;;;;5025864;28;20041;-61
2023/03/15 01:58:51;;;;;;;8.45;3.53;;;;;;;;;;5025293;28;20049;-60
2023/03/15 02:01:19;;;;;;;8.90;3.50;;;;;;;;;;5026262;28;20555;-60
2023/03/15 02:03:47;;;;;;;7.10;3.22;;;;;;;;;;5025945;28;20164;-62
2023/03/15 02:06:17;;;;;;;8.65;3.70;;;;;;;;;;5026922;28;20379;-63
2023/03/15 02:08:50;;;;;;;6.38;3.13;;;;;;;;;;5024847;28;20067;-61
2023/03/15 02:11:19;;;;;;;7.32;3.50;;;;;;;;;;5026149;28;21985;-63
2023/03/15 02:13:48;;;;;;;6.57;3.20;;;;;;;;;;5024050;28;20053;-61
2023/03/15 02:16:15;;;;;;;6.68;2.85;;;;;;;;;;5025933;28;20581;-63
2023/03/15 02:18:42;;;;;;;7.80;3.58;;;;;;;;;;5025674;28;20052;-62
2023/03/15 02:21:22;;;;;;;8.32;3.70;;;;;;;;;;5025644;28;20047;-64
2023/03/15 02:23:53;;;;;;;7.85;3.30;;;;;;;;;;5025226;28;20045;-62
2023/03/15 02:26:31;;;;;;;7.13;3.35;;;;;;;;;;5026077;28;20396;-60
2023/03/15 02:28:59;;;;;;;7.63;3.35;;;;;;;;;;5024773;28;20079;-61
2023/03/15 02:31:25;;;;;;;8.40;3.33;;;;;;;;;;5024528;28;20037;-59
2023/03/15 02:33:55;;;;;;;7.35;3.28;;;;;;;;;;5026004;28;20044;-62
2023/03/15 02:36:22;;;;;;;9.15;3.42;;;;;;;;;;5025225;28;20053;-62
2023/03/15 02:38:51;;;;;;;8.68;3.60;;;;;;;;;;5023662;28;20043;-62
2023/03/15 02:41:22;;;;;;;8.77;3.65;;;;;;;;;;5036230;28;20651;-61
2023/03/15 02:43:49;;;;;;;10.88;3.58;;;;;;;;;;5023773;28;20351;-61
2023/03/15 02:46:17;;;;;;;11.65;4.18;;;;;;;;;;5025374;28;20048;-62
2023/03/15 02:48:44;;;;;;;10.75;3.58;;;;;;;;;;5021410;28;20032;-60
2023/03/15 02:51:21;;;;;;;12.77;4.22;;;;;;;;;;5025101;28;20557;-61
2023/03/15 02:53:48;;;;;;;6.88;3.33;;;;;;;;;;5024383;28;20124;-60
2023/03/15 02:56:15;;;;;;;7.53;3.58;;;;;;;;;;5025957;28;20171;-61
2023/03/15 02:58:45;;;;;;;9.20;3.88;;;;;;;;;;5024100;28;20071;-62
2023/03/15 03:01:12;;;;;;;7.00;3.65;;;;;;;;;;5022961;28;20037;-63
2023/03/15 03:03:40;;;;;;;10.13;4.05;;;;;;;;;;5027233;28;20053;-62
2023/03/15 03:06:07;;;;;;;9.40;3.60;;;;;;;;;;5029797;28;20492;-63
2023/03/15 03:08:34;;;;;;;8.85;3.70;;;;;;;;;;5031927;28;20713;-63
2023/03/15 03:11:01;;;;;;;7.65;3.75;;;;;;;;;;5031252;28;20029;-62
2023/03/15 03:13:28;;;;;;;11.48;4.10;;;;;;;;;;5026669;28;20053;-62
2023/03/15 03:15:57;;;;;;;16.63;4.20;;;;;;;;;;5025993;28;20120;-60
2023/03/15 03:18:28;;;;;;;10.55;4.03;;;;;;;;;;5024801;28;20044;-62
2023/03/15 03:20:58;;;;;;;11.43;4.43;;;;;;;;;;5027259;28;20055;-60
2023/03/15 03:23:26;;;;;;;7.32;3.65;;;;;;;;;;5026577;28;20068;-62
2023/03/15 03:25:56;;;;;;;10.10;4.35;;;;;;;;;;5025043;28;20045;-62
2023/03/15 03:28:24;;;;;;;10.93;4.70;;;;;;;;;;5024458;28;20045;-62
2023/03/15 03:30:52;;;;;;;14.52;4.93;;;;;;;;;;5024657;28;20055;-61
2023/03/15 03:33:20;;;;;;;9.30;4.28;;;;;;;;;;5023415;28;20044;-63
2023/03/15 03:35:46;;;;;;;10.95;4.45;;;;;;;;;;5024555;28;20044;-61
2023/03/15 03:38:13;;;;;;;12.75;4.63;;;;;;;;;;5024877;28;20049;-62
2023/03/15 03:40:40;;;;;;;13.75;5.13;;;;;;;;;;5023679;28;20029;-63
2023/03/15 03:43:08;;;;;;;15.68;5.25;;;;;;;;;;5024243;28;20461;-62
2023/03/15 03:45:35;;;;;;;11.32;4.50;;;;;;;;;;5025245;28;20390;-61
2023/03/15 03:48:01;;;;;;;11.32;4.65;;;;;;;;;;5025868;28;20053;-62
2023/03/15 03:50:48;;;;;;;11.45;4.90;;;;;;;;;;5036888;28;20604;-62
2023/03/15 03:53:16;;;;;;;8.95;4.40;;;;;;;;;;5024590;28;20221;-61
2023/03/15 03:55:42;;;;;;;10.07;3.83;;;;;;;;;;5017469;28;20075;-62
2023/03/15 03:58:09;;;;;;;11.07;4.38;;;;;;;;;;5017732;28;20081;-62
2023/03/15 04:00:36;;;;;;;15.98;4.47;;;;;;;;;;5017652;28;20096;-63
2023/03/15 04:03:03;;;;;;;11.73;4.70;;;;;;;;;;5019191;28;20603;-62
2023/03/15 04:05:29;;;;;;;9.55;4.45;;;;;;;;;;5017128;28;20079;-60
2023/03/15 04:07:56;;;;;;;9.60;4.50;;;;;;;;;;5016102;28;20041;-61
2023/03/15 04:10:25;;;;;;;14.68;5.90;;;;;;;;;;5019293;28;20037;-63
2023/03/15 04:12:55;;;;;;;13.43;5.45;;;;;;;;;;5017632;28;20053;-62
2023/03/15 04:15:23;;;;;;;10.98;5.13;;;;;;;;;;5016597;28;20095;-62
2023/03/15 04:18:04;;;;;;;11.63;4.95;;;;;;;;;;5016068;28;20459;-62
2023/03/15 04:20:34;;;;;;;15.05;5.05;;;;;;;;;;5016636;28;21839;-63
2023/03/15 04:23:01;;;;;;;10.50;4.38;;;;;;;;;;5017083;28;20061;-62
2023/03/15 04:25:27;;;;;;;9.05;4.60;;;;;;;;;;5016476;28;20040;-61
2023/03/15 04:28:01;;;;;;;10.90;4.80;;;;;;;;;;5011292;28;21591;-60
2023/03/15 04:30:29;;;;;;;12.65;5.25;;;;;;;;;;5003834;28;20037;-63
2023/03/15 04:33:02;;;;;;;11.18;5.50;;;;;;;;;;5003927;28;20050;-61
2023/03/15 04:35:35;;;;;;;10.18;4.47;;;;;;;;;;5004027;28;20037;-62
2023/03/15 04:38:02;;;;;;;12.32;5.88;;;;;;;;;;5002272;28;20030;-64
2023/03/15 04:40:33;;;;;;;10.57;4.55;;;;;;;;;;5004017;28;20126;-62
2023/03/15 04:43:02;;;;;;;9.27;4.88;;;;;;;;;;5020536;28;20040;-62
2023/03/15 04:45:30;;;;;;;13.02;5.18;;;;;;;;;;5006428;28;20107;-59
2023/03/15 04:47:57;;;;;;;11.07;5.05;;;;;;;;;;5007551;28;20088;-62
2023/03/15 04:50:24;;;;;;;12.75;5.78;;;;;;;;;;5019671;28;20058;-61
2023/03/15 04:52:51;;;;;;;9.30;4.93;;;;;;;;;;5002683;28;20529;-61
2023/03/15 04:55:17;;;;;;;13.57;5.95;;;;;;;;;;5006399;28;20054;-60
2023/03/15 04:57:44;;;;;;;12.77;5.07;;;;;;;;;;5006814;28;20047;-62
2023/03/15 05:00:11;;;;;;;11.55;5.28;;;;;;;;;;5007146;28;20037;-63
2023/03/15 05:02:41;;;;;;;10.35;5.82;;;;;;;;;;5008113;28;20145;-62
2023/03/15 05:05:08;;;;;;;14.50;6.35;;;;;;;;;;5008796;28;20490;-61
2023/03/15 05:07:35;;;;;;;17.70;6.45;;;;;;;;;;5007261;28;20041;-63
2023/03/15 05:10:02;;;;;;;12.40;6.57;;;;;;;;;;5007119;28;20044;-62
2023/03/15 05:12:29;;;;;;;16.55;7.88;;;;;;;;;;5007177;28;20053;-63
2023/03/15 05:14:55;;;;;;;14.75;6.70;;;;;;;;;;5007037;28;20599;-62
2023/03/15 05:17:22;;;;;;;18.45;6.25;;;;;;;;;;5003805;28;20045;-61
2023/03/15 05:19:50;;;;;;;16.27;6.53;;;;;;;;;;5008796;28;20045;-62
2023/03/15 05:22:17;;;;;;;15.02;5.57;;;;;;;;;;5008173;28;20120;-61
2023/03/15 05:24:44;;;;;;;16.50;6.50;;;;;;;;;;5006515;28;20486;-63
2023/03/15 05:27:12;;;;;;;15.82;6.90;;;;;;;;;;5006121;28;20059;-61
2023/03/15 05:29:39;;;;;;;20.33;7.32;;;;;;;;;;5007782;28;20441;-62
2023/03/15 05:32:06;;;;;;;14.75;7.03;;;;;;;;;;5004541;28;20049;-64
2023/03/15 05:34:32;;;;;;;14.75;6.60;;;;;;;;;;5007247;28;20049;-64
2023/03/15 05:36:59;;;;;;;13.93;6.97;;;;;;;;;;5007079;28;20064;-61
2023/03/15 05:39:26;;;;;;;13.82;6.45;;;;;;;;;;5006132;28;20052;-63
2023/03/15 05:41:52;;;;;;;17.35;6.55;;;;;;;;;;5007945;28;20113;-65
2023/03/15 05:44:19;;;;;;;11.77;5.68;;;;;;;;;;5003488;28;20061;-63
2023/03/15 05:46:46;;;;;;;13.63;6.28;;;;;;;;;;5001014;28;20057;-63
2023/03/15 05:49:12;;;;;;;12.43;5.28;;;;;;;;;;5006486;28;20045;-63
2023/03/15 05:51:39;;;;;;;17.58;6.70;;;;;;;;;;5017669;28;20045;-61
2023/03/15 05:54:05;;;;;;;11.82;5.72;;;;;;;;;;5003656;28;20741;-64
2023/03/15 05:56:32;;;;;;;17.67;6.07;;;;;;;;;;5017757;28;20038;-62
2023/03/15 05:59:01;;;;;;;13.10;5.88;;;;;;;;;;5005366;28;20060;-62
2023/03/15 06:01:28;;;;;;;11.48;6.10;;;;;;;;;;5006259;28;20052;-61
2023/03/15 06:03:55;;;;;;;10.40;5.25;;;;;;;;;;5007891;28;20140;-62
2023/03/15 06:06:21;;;;;;;13.73;6.25;;;;;;;;;;5006257;28;20073;-65
2023/03/15 06:08:48;;;;;;;15.90;6.60;;;;;;;;;;5006084;28;20061;-61
2023/03/15 06:11:14;;;;;;;13.27;6.30;;;;;;;;;;5004982;28;20230;-62
2023/03/15 06:13:41;;;;;;;13.15;5.85;;;;;;;;;;5005607;28;20490;-61
2023/03/15 06:16:08;;;;;;;13.38;6.80;;;;;;;;;;5005534;28;20042;-63
2023/03/15 06:18:34;;;;;;;12.85;6.15;;;;;;;;;;5000732;28;20042;-61
2023/03/15 06:21:01;;;;;;;12.88;5.88;;;;;;;;;;5007812;28;20044;-61
2023/03/15 06:23:27;;;;;;;13.15;6.10;;;;;;;;;;5005981;28;20157;-61
2023/03/15 06:25:54;;;;;;;14.15;6.00;;;;;;;;;;5004196;28;20531;-62
2023/03/15 06:28:21;;;;;;;13.73;6.32;;;;;;;;;;5004799;28;20052;-62
2023/03/15 06:30:47;;;;;;;10.90;5.57;;;;;;;;;;5005976;28;20430;-62
2023/03/15 06:33:15;;;;;;;15.73;5.90;;;;;;;;;;5006378;28;20054;-62
2023/03/15 06:35:42;;;;;;;12.60;6.13;;;;;;;;;;5006237;28;20056;-63
2023/03/15 06:38:08;;;;;;;13.50;5.43;;;;;;;;;;5024499;28;20710;-62
2023/03/15 06:40:35;;;;;;;21.52;7.07;;;;;;;;;;5007830;28;20041;-62
2023/03/15 06:43:05;;;;;;;14.27;5.85;;;;;;;;;;5007049;28;20852;-63
2023/03/15 06:45:32;;;;;;;19.35;7.28;;;;;;;;;;5005113;28;20112;-60
2023/03/15 06:47:59;;;;;;;14.10;5.88;;;;;;;;;;5003711;28;20052;-63
2023/03/15 06:50:26;;;;;;;11.98;6.18;;;;;;;;;;5003981;28;20791;-61
2023/03/15 06:53:13;;;;;;;14.57;6.50;;;;;;;;;;5038419;28;20056;-62
2023/03/15 06:55:39;;;;;;;16.10;5.50;;;;;;;;;;5037401;28;20059;-62
2023/03/15 06:58:06;;;;;;;18.58;6.45;;;;;;;;;;5037542;28;20276;-63
2023/03/15 07:00:32;;;;;;;15.32;5.55;;;;;;;;;;5036145;28;20456;-61
2023/03/15 07:02:59;;;;;;;16.63;6.97;;;;;;;;;;5036855;28;20037;-60
2023/03/15 07:05:26;;;;;;;15.57;7.75;;;;;;;;;;5024439;28;20105;-62
2023/03/15 07:07:53;;;;;;;15.98;7.38;;;;;;;;;;5037627;28;20457;-62
2023/03/15 07:10:20;;;;;;;12.15;6.25;;;;;;;;;;5038028;28;20070;-63
2023/03/15 07:12:47;;;;;;;9.57;4.20;;;;;;;;;;5036468;28;20057;-63
2023/03/15 07:15:14;;;;;;;9.00;4.13;;;;;;;;;;5035976;28;20393;-62
2023/03/15 07:17:40;;;;;;;10.48;4.32;;;;;;;;;;5021691;28;20144;-64
2023/03/15 07:20:07;;;;;;;9.50;4.00;;;;;;;;;;5022918;28;20247;-63
2023/03/15 07:22:34;;;;;;;7.00;3.20;;;;;;;;;;5036260;28;20099;-63
2023/03/15 07:25:01;;;;;;;6.95;3.00;;;;;;;;;;5036952;28;20163;-63
2023/03/15 07:27:28;;;;;;;9.18;3.22;;;;;;;;;;5036195;28;20082;-62
2023/03/15 07:29:55;;;;;;;5.85;2.53;;;;;;;;;;5031085;28;20048;-63
2023/03/15 07:32:22;;;;;;;7.18;3.10;;;;;;;;;;5002854;28;20069;-65
2023/03/15 07:34:48;;;;;;;6.63;2.92;;;;;;;;;;5005816;28;20123;-65
2023/03/15 07:37:16;;;;;;;7.65;3.58;;;;;;;;;;5004274;28;20048;-62
2023/03/15 07:39:42;;;;;;;7.63;3.28;;;;;;;;;;5002239;28;20041;-62
2023/03/15 07:42:09;;;;;;;9.10;3.38;;;;;;;;;;5007008;28;20045;-64
2023/03/15 07:44:36;;;;;;;9.48;3.05;;;;;;;;;;4997534;28;20073;-62
2023/03/15 07:47:03;;;;;;;9.60;2.88;;;;;;;;;;5030361;28;20731;-62
2023/03/15 07:49:30;;;;;;;6.38;2.83;;;;;;;;;;5011882;28;20076;-63
2023/03/15 07:51:57;;;;;;;7.82;2.22;;;;;;;;;;5016084;28;20146;-62
2023/03/15 07:54:23;;;;;;;5.55;2.20;;;;;;;;;;5005569;28;21783;-65
2023/03/15 07:56:50;;;;;;;7.85;2.45;;;;;;;;;;5005535;28;20037;-63
2023/03/15 07:59:17;;;;;;;5.55;2.42;;;;;;;;;;5015319;28;20060;-63
2023/03/15 08:01:43;;;;;;;6.07;2.47;;;;;;;;;;5004173;28;20041;-61
2023/03/15 08:04:10;;;;;;;5.25;2.28;;;;;;;;;;5000868;28;20060;-62
2023/03/15 08:06:36;;;;;;;7.13;2.45;;;;;;;;;;5004631;28;20037;-61
2023/03/15 08:09:04;;;;;;;5.60;2.22;;;;;;;;;;5002521;28;20073;-59
2023/03/15 08:11:31;;;;;;;6.97;2.35;;;;;;;;;;5002846;28;20335;-60
2023/03/15 08:13:58;;;;;;;7.05;2.28;;;;;;;;;;5006112;28;20092;-60
2023/03/15 08:16:25;;;;;;;8.10;2.75;;;;;;;;;;5002561;28;20030;-61
2023/03/15 08:18:51;;;;;;;8.68;2.42;;;;;;;;;;4999224;28;20116;-59
2023/03/15 08:21:18;;;;;;;4.70;1.90;;;;;;;;;;5002836;28;20037;-63
2023/03/15 08:23:44;;;;;;;5.30;2.17;;;;;;;;;;5022392;28;20041;-62
2023/03/15 08:26:11;;;;;;;7.15;2.47;;;;;;;;;;5023656;28;20036;-63
2023/03/15 08:28:38;;;;;;;7.22;2.35;;;;;;;;;;5023563;28;21601;-61
2023/03/15 08:31:08;;;;;;;5.82;2.60;;;;;;;;;;5023599;28;20052;-60
2023/03/15 08:33:35;;;;;;;10.05;2.10;;;;;;;;;;5022125;28;20050;-62
2023/03/15 08:36:01;;;;;;;4.72;1.80;;;;;;;;;;5022385;28;20033;-63
2023/03/15 08:38:30;;;;;;;6.57;1.92;;;;;;;;;;5034322;28;20111;-63
2023/03/15 08:40:57;;;;;;;4.57;1.85;;;;;;;;;;5023783;28;21719;-63
2023/03/15 08:43:23;;;;;;;8.82;2.00;;;;;;;;;;5034225;28;20041;-63
2023/03/15 08:45:50;;;;;;;6.95;2.25;;;;;;;;;;5024577;28;20102;-60
2023/03/15 08:48:17;;;;;;;4.80;1.88;;;;;;;;;;5022299;28;20045;-62
2023/03/15 08:50:44;;;;;;;5.68;1.80;;;;;;;;;;5022171;28;20045;-64
2023/03/15 08:53:11;;;;;;;5.40;1.75;;;;;;;;;;5022499;28;20072;-63
2023/03/15 08:55:38;;;;;;;12.85;2.40;;;;;;;;;;5023571;28;20108;-60
2023/03/15 08:58:04;;;;;;;4.32;1.63;;;;;;;;;;5024906;28;20429;-63
2023/03/15 09:00:31;;;;;;;5.45;1.98;;;;;;;;;;5023787;28;20499;-59
2023/03/15 09:02:58;;;;;;;7.18;1.95;;;;;;;;;;5025394;28;20533;-60
2023/03/15 09:05:25;;;;;;;4.20;1.90;;;;;;;;;;5023496;28;20402;-59
2023/03/15 09:07:52;;;;;;;4.65;1.92;;;;;;;;;;5024402;28;21014;-61
2023/03/15 09:10:19;;;;;;;5.93;2.10;;;;;;;;;;5024309;28;20046;-61
2023/03/15 09:12:47;;;;;;;6.28;2.25;;;;;;;;;;5018825;28;20061;-61
2023/03/15 09:15:14;;;;;;;5.13;2.30;;;;;;;;;;5023531;28;20038;-63
2023/03/15 09:17:42;;;;;;;6.80;2.00;;;;;;;;;;5021484;28;20045;-61
2023/03/15 09:20:13;;;;;;;3.90;1.55;;;;;;;;;;5021178;28;20042;-62
2023/03/15 09:22:41;;;;;;;9.27;1.95;;;;;;;;;;5032679;28;20042;-63
2023/03/15 09:25:08;;;;;;;4.32;1.58;;;;;;;;;;5039422;28;20041;-65
2023/03/15 09:27:35;;;;;;;6.50;2.22;;;;;;;;;;5034119;28;20049;-63
2023/03/15 09:30:02;;;;;;;5.28;1.77;;;;;;;;;;5033036;28;20041;-63
2023/03/15 09:32:50;;;;;;;11.32;1.90;;;;;;;;;;4994648;28;20274;-60
2023/03/15 09:35:18;;;;;;;5.20;1.77;;;;;;;;;;4995358;28;20053;-63
2023/03/15 09:37:45;;;;;;;5.60;1.70;;;;;;;;;;4996115;28;20696;-62
2023/03/15 09:40:15;;;;;;;3.50;1.40;;;;;;;;;;4983354;28;20043;-61
2023/03/15 09:42:53;;;;;;;6.00;2.20;;;;;;;;;;4977846;28;20042;-61
2023/03/15 09:45:20;;;;;;;4.30;1.65;;;;;;;;;;4980427;28;20070;-63
2023/03/15 09:47:53;;;;;;;4.57;1.77;;;;;;;;;;4978491;28;20030;-61
2023/03/15 09:50:37;;;;;;;8.95;2.00;;;;;;;;;;4976589;28;20057;-62
2023/03/15 09:53:12;;;;;;;5.47;1.63;;;;;;;;;;4995619;28;20534;-63
2023/03/15 09:55:39;;;;;;;4.20;1.73;;;;;;;;;;4978972;28;20030;-64
2023/03/15 09:58:14;;;;;;;3.78;1.48;;;;;;;;;;4977840;28;20242;-62
2023/03/15 10:00:45;;;;;;;6.50;2.03;;;;;;;;;;4978810;28;20045;-63
2023/03/15 10:03:32;;;;;;;8.00;1.75;;;;;;;;;;4978521;28;20525;-63
2023/03/15 10:06:01;;;;;;;9.55;2.50;;;;;;;;;;4979045;28;20077;-64
2023/03/15 10:08:28;;;;;;;4.78;2.00;;;;;;;;;;4977054;28;20045;-63
2023/03/15 10:11:10;;;;;;;10.30;2.03;;;;;;;;;;5000426;28;20483;-64
2023/03/15 10:13:55;;;;;;;4.15;1.70;;;;;;;;;;5005758;28;20045;-64
2023/03/15 10:16:22;;;;;;;7.95;2.22;;;;;;;;;;5005194;28;20040;-65
2023/03/15 10:18:51;;;;;;;7.00;1.67;;;;;;;;;;5017951;28;20045;-65
2023/03/15 10:21:27;;;;;;;4.65;2.10;;;;;;;;;;5005549;28;20095;-64
2023/03/15 10:23:54;;;;;;;4.55;2.28;;;;;;;;;;5006127;28;20668;-64
2023/03/15 10:26:27;;;;;;;4.00;1.85;;;;;;;;;;5004215;28;20040;-64
2023/03/15 10:28:53;;;;;;;5.32;2.08;;;;;;;;;;5006155;28;20150;-63
2023/03/15 10:31:25;;;;;;;9.15;2.30;;;;;;;;;;5037615;28;20464;-64
2023/03/15 10:33:52;;;;;;;3.40;1.52;;;;;;;;;;5038607;28;20149;-66
2023/03/15 10:36:23;;;;;;;3.35;1.40;;;;;;;;;;5036742;28;20032;-63
2023/03/15 10:38:50;;;;;;;4.75;1.40;;;;;;;;;;5038364;28;20052;-65
2023/03/15 10:41:35;;;;;;;4.07;1.27;;;;;;;;;;5031113;28;20049;-64
2023/03/15 10:44:04;;;;;;;4.43;1.73;;;;;;;;;;5034375;28;20052;-64
2023/03/15 10:46:34;;;;;;;5.20;1.58;;;;;;;;;;5057595;28;20050;-64
2023/03/15 10:49:11;;;;;;;4.70;1.50;;;;;;;;;;5052134;28;20047;-62
2023/03/15 10:51:43;;;;;;;3.95;1.30;;;;;;;;;;5056927;28;20700;-63
2023/03/15 10:54:17;;;;;;;9.48;1.45;;;;;;;;;;5056803;28;20060;-62
2023/03/15 10:56:48;;;;;;;3.08;1.20;;;;;;;;;;5038831;28;20220;-63
2023/03/15 10:59:16;;;;;;;6.30;1.42;;;;;;;;;;5040366;28;20036;-62
2023/03/15 11:01:46;;;;;;;5.65;1.73;;;;;;;;;;5057152;28;20093;-63
2023/03/15 11:04:18;;;;;;;11.55;1.80;;;;;;;;;;5057870;28;20051;-64
2023/03/15 11:06:46;;;;;;;23.35;2.33;;;;;;;;;;5056609;28;20047;-63
2023/03/15 11:09:15;;;;;;;2.20;0.80;;;;;;;;;;5035295;28;20496;-63
2023/03/15 11:11:56;;;;;;;3.88;1.60;;;;;;;;;;5023623;28;20068;-63
2023/03/15 11:14:23;;;;;;;3.00;1.27;;;;;;;;;;5023134;28;20718;-63
2023/03/15 11:16:58;;;;;;;4.28;1.38;;;;;;;;;;5034863;28;20037;-64
2023/03/15 11:19:30;;;;;;;8.60;1.77;;;;;;;;;;5023634;28;20090;-64
2023/03/15 11:21:58;;;;;;;4.47;1.48;;;;;;;;;;5025037;28;20049;-62
2023/03/15 11:24:28;;;;;;;2.47;1.10;;;;;;;;;;5025633;28;20128;-66
2023/03/15 11:27:00;;;;;;;4.13;1.65;;;;;;;;;;5026593;28;20037;-63
2023/03/15 11:29:29;;;;;;;6.57;1.25;;;;;;;;;;5023666;28;20486;-63
2023/03/15 11:31:56;;;;;;;4.25;1.77;;;;;;;;;;5025748;28;20121;-63
2023/03/15 11:34:28;;;;;;;11.02;1.60;;;;;;;;;;5023805;28;20536;-65
2023/03/15 11:36:57;;;;;;;5.63;1.17;;;;;;;;;;5035470;28;20041;-63
2023/03/15 11:39:32;;;;;;;5.45;1.52;;;;;;;;;;5024659;28;20053;-64
2023/03/15 11:42:02;;;;;;;6.75;1.10;;;;;;;;;;5026996;28;20034;-65
2023/03/15 11:44:29;;;;;;;4.00;1.50;;;;;;;;;;5021544;28;20037;-63
2023/03/15 11:47:14;;;;;;;4.10;1.35;;;;;;;;;;5024756;28;20033;-62
2023/03/15 11:49:52;;;;;;;4.22;1.38;;;;;;;;;;5023199;28;20582;-64
2023/03/15 11:52:20;;;;;;;5.38;1.33;;;;;;;;;;5023454;28;20053;-63
2023/03/15 11:54:47;;;;;;;2.92;1.15;;;;;;;;;;5024980;28;20037;-61
2023/03/15 11:57:29;;;;;;;5.35;1.25;;;;;;;;;;5023854;28;20530;-61
2023/03/15 11:59:56;;;;;;;2.88;1.02;;;;;;;;;;5027980;28;20112;-62
2023/03/15 12:02:25;;;;;;;2.58;1.00;;;;;;;;;;5023220;28;20102;-62
2023/03/15 12:04:55;;;;;;;2.58;0.93;;;;;;;;;;5023505;28;20069;-63
2023/03/15 12:07:25;;;;;;;4.28;1.40;;;;;;;;;;5022909;28;20095;-64
2023/03/15 12:09:55;;;;;;;4.03;1.33;;;;;;;;;;5025482;28;20033;-63
2023/03/15 12:12:24;;;;;;;7.97;1.20;;;;;;;;;;5023899;28;20045;-63
2023/03/15 12:15:09;;;;;;;3.30;1.00;;;;;;;;;;5024922;28;20033;-63
2023/03/15 12:17:38;;;;;;;3.38;1.20;;;;;;;;;;5022178;28;20124;-62
2023/03/15 12:20:08;;;;;;;3.75;1.33;;;;;;;;;;5023034;28;20207;-63
2023/03/15 12:22:35;;;;;;;2.55;1.10;;;;;;;;;;5022580;28;20144;-67
2023/03/15 12:25:12;;;;;;;6.30;1.33;;;;;;;;;;5035454;28;20047;-65
2023/03/15 12:27:43;;;;;;;3.13;1.25;;;;;;;;;;5019090;28;20044;-65
2023/03/15 12:30:18;;;;;;;4.38;1.70;;;;;;;;;;5017730;28;20037;-63
2023/03/15 12:32:49;;;;;;;14.65;2.90;;;;;;;;;;5016974;28;20094;-64
2023/03/15 12:35:18;;;;;;;2.47;1.02;;;;;;;;;;5023962;28;20060;-63
2023/03/15 12:37:46;;;;;;;4.15;1.55;;;;;;;;;;5021352;28;20080;-63
2023/03/15 12:40:17;;;;;;;2.65;1.30;;;;;;;;;;5022904;28;20482;-64
2023/03/15 12:42:44;;;;;;;4.97;1.73;;;;;;;;;;5023838;28;20686;-63
2023/03/15 12:45:31;;;;;;;3.42;1.80;;;;;;;;;;5024020;28;20037;-62
2023/03/15 12:47:57;;;;;;;6.93;1.58;;;;;;;;;;5024057;28;20075;-63
2023/03/15 12:50:51;;;;;;;3.13;1.33;;;;;;;;;;5022886;28;20046;-65
2023/03/15 12:53:21;;;;;;;13.55;0.93;;;;;;;;;;5021117;28;20068;-62
2023/03/15 12:55:49;;;;;;;10.98;1.70;;;;;;;;;;5048650;28;20041;-63
2023/03/15 12:58:17;;;;;;;4.95;1.70;;;;;;;;;;5023730;28;20044;-62
2023/03/15 13:00:44;;;;;;;2.95;1.17;;;;;;;;;;5023790;28;20072;-63
2023/03/15 13:03:15;;;;;;;8.82;1.17;;;;;;;;;;5028740;28;20039;-64
2023/03/15 13:05:42;;;;;;;5.40;1.33;;;;;;;;;;5028768;28;20079;-63
2023/03/15 13:08:24;;;;;;;3.53;1.38;;;;;;;;;;5028187;28;20033;-63
2023/03/15 13:10:53;;;;;;;9.68;1.95;;;;;;;;;;5026739;28;20033;-64
2023/03/15 13:13:20;;;;;;;4.55;1.40;;;;;;;;;;5027973;28;20115;-64
2023/03/15 13:15:58;;;;;;;4.20;1.67;;;;;;;;;;5039537;28;20044;-63
2023/03/15 13:18:26;;;;;;;5.40;1.70;;;;;;;;;;5026352;28;20041;-64
2023/03/15 13:21:05;;;;;;;7.65;2.20;;;;;;;;;;5027158;28;20045;-64
2023/03/15 13:23:33;;;;;;;3.67;1.20;;;;;;;;;;5024061;28;20045;-63
2023/03/15 13:26:08;;;;;;;21.60;1.70;;;;;;;;;;5026980;28;20037;-65
2023/03/15 13:28:41;;;;;;;14.65;2.05;;;;;;;;;;5028600;28;20049;-63
2023/03/15 13:31:27;;;;;;;4.70;1.73;;;;;;;;;;5028784;28;20635;-61
2023/03/15 13:33:56;;;;;;;6.50;2.08;;;;;;;;;;5027511;28;20049;-64
2023/03/15 13:36:41;;;;;;;3.80;1.58;;;;;;;;;;5037427;28;20032;-65
2023/03/15 13:39:26;;;;;;;3.60;1.40;;;;;;;;;;5027963;28;20677;-65
2023/03/15 13:41:59;;;;;;;6.82;2.45;;;;;;;;;;5022942;28;20321;-64
2023/03/15 13:44:26;;;;;;;3.47;1.35;;;;;;;;;;5038119;28;20191;-63
2023/03/15 13:46:53;;;;;;;7.05;2.10;;;;;;;;;;5028349;28;20044;-68
2023/03/15 13:49:20;;;;;;;3.35;1.48;;;;;;;;;;5025649;28;20111;-63
2023/03/15 13:51:48;;;;;;;4.82;2.00;;;;;;;;;;5028484;28;20037;-62
2023/03/15 13:54:17;;;;;;;4.97;0.95;;;;;;;;;;5028386;28;20428;-65
2023/03/15 13:57:08;;;;;;;15.88;1.85;;;;;;;;;;5026721;28;20049;-64
2023/03/15 13:59:44;;;;;;;4.43;1.00;;;;;;;;;;5017693;28;20033;-63
2023/03/15 14:02:16;;;;;;;5.18;1.80;;;;;;;;;;5028075;28;20143;-62
2023/03/15 14:04:45;;;;;;;11.82;1.65;;;;;;;;;;5027166;28;20046;-65
2023/03/15 14:07:11;;;;;;;4.93;1.00;;;;;;;;;;5026036;28;20059;-64
2023/03/15 14:09:38;;;;;;;3.85;1.13;;;;;;;;;;5027425;28;20088;-63
2023/03/15 14:12:06;;;;;;;11.40;1.27;;;;;;;;;;5027867;28;20049;-63
2023/03/15 14:14:36;;;;;;;5.90;1.27;;;;;;;;;;5031250;28;20070;-63
2023/03/15 14:17:07;;;;;;;19.50;1.13;;;;;;;;;;5033889;28;20034;-62
2023/03/15 14:19:35;;;;;;;5.30;1.27;;;;;;;;;;5034142;28;20057;-63
2023/03/15 14:22:14;;;;;;;2.10;0.93;;;;;;;;;;5028887;28;20506;-64
2023/03/15 14:24:43;;;;;;;3.28;0.88;;;;;;;;;;5027788;28;20037;-65
2023/03/15 14:27:25;;;;;;;3.38;1.75;;;;;;;;;;5025503;28;20383;-63
2023/03/15 14:30:19;;;;;;;11.23;1.17;;;;;;;;;;5001687;28;20073;-63
2023/03/15 14:32:53;;;;;;;2.55;0.90;;;;;;;;;;4984010;28;20061;-65
2023/03/15 14:35:22;;;;;;;3.97;1.13;;;;;;;;;;5017201;28;20359;-63
2023/03/15 14:38:00;;;;;;;8.50;1.85;;;;;;;;;;5001736;28;20094;-64
2023/03/15 14:40:34;;;;;;;5.90;1.60;;;;;;;;;;5004072;28;20160;-63
2023/03/15 14:43:02;;;;;;;2.65;0.90;;;;;;;;;;5007609;28;20042;-68
2023/03/15 14:45:30;;;;;;;4.35;1.38;;;;;;;;;;5026014;28;20034;-63
2023/03/15 14:48:04;;;;;;;10.40;2.15;;;;;;;;;;5001742;28;20108;-63
2023/03/15 14:50:44;;;;;;;11.20;1.05;;;;;;;;;;5002897;28;20104;-62